sensor_id;sensor_type;location;lat;lon;timestamp;temperature;humidity
14093;DHT22;7123;49.468;10.992;2023-08-12T00:00:14;24.80;99.90
14093;DHT22;7123;49.468;10.992;2023-08-12T00:02:41;24.80;99.90
14093;DHT22;7123;49.468;10.992;2023-08-12T00:05:09;24.70;99.90
14093;DHT22;7123;49.468;10.992;2023-08-12T00:07:39;24.80;99.90
14093;DHT22;7123;49.468;10.992;2023-08-12T00:10:10;24.80;99.90
14093;DHT22;7123;49.468;10.992;2023-08-12T00:12:38;24.80;99.90
14093;DHT22;7123;49.468;10.992;2023-08-12T00:15:06;24.80;99.90
14093;DHT22;7123;49.468;10.992;2023-08-12T00:17:35;24.70;99.90
14093;DHT22;7123;49.468;10.992;2023-08-12T00:20:08;24.70;99.90
14093;DHT22;7123;49.468;10.992;2023-08-12T00:22:38;24.70;99.90
14093;DHT22;7123;49.468;10.992;2023-08-12T00:25:06;24.70;99.90
14093;DHT22;7123;49.468;10.992;2023-08-12T00:27:33;24.70;99.90
14093;DHT22;7123;49.468;10.992;2023-08-12T00:30:01;24.70;99.90
14093;DHT22;7123;49.468;10.992;2023-08-12T00:32:27;24.70;99.90
14093;DHT22;7123;49.468;10.992;2023-08-12T00:34:54;24.70;99.90
14093;DHT22;7123;49.468;10.992;2023-08-12T00:37:21;24.70;99.90
14093;DHT22;7123;49.468;10.992;2023-08-12T00:39:48;24.60;99.90
14093;DHT22;7123;49.468;10.992;2023-08-12T00:42:15;24.60;99.90
14093;DHT22;7123;49.468;10.992;2023-08-12T00:44:41;24.60;99.90
14093;DHT22;7123;49.468;10.992;2023-08-12T00:47:08;24.60;99.90
14093;DHT22;7123;49.468;10.992;2023-08-12T00:49:36;24.60;99.90
14093;DHT22;7123;49.468;10.992;2023-08-12T00:52:04;24.50;99.90
14093;DHT22;7123;49.468;10.992;2023-08-12T00:54:31;24.50;99.90
14093;DHT22;7123;49.468;10.992;2023-08-12T00:56:57;24.50;99.90
14093;DHT22;7123;49.468;10.992;2023-08-12T00:59:25;24.50;99.90
14093;DHT22;7123;49.468;10.992;2023-08-12T01:01:52;24.50;99.90
14093;DHT22;7123;49.468;10.992;2023-08-12T01:04:19;24.40;99.90
14093;DHT22;7123;49.468;10.992;2023-08-12T01:06:46;24.40;99.90
14093;DHT22;7123;49.468;10.992;2023-08-12T01:09:13;24.40;99.90
14093;DHT22;7123;49.468;10.992;2023-08-12T01:11:57;24.30;99.90
14093;DHT22;7123;49.468;10.992;2023-08-12T01:14:56;24.30;99.90
14093;DHT22;7123;49.468;10.992;2023-08-12T01:17:27;24.30;99.90
14093;DHT22;7123;49.468;10.992;2023-08-12T01:19:56;24.30;99.90
14093;DHT22;7123;49.468;10.992;2023-08-12T01:22:23;24.20;99.90
14093;DHT22;7123;49.468;10.992;2023-08-12T01:24:52;24.20;99.90
14093;DHT22;7123;49.468;10.992;2023-08-12T01:27:19;24.20;99.90
14093;DHT22;7123;49.468;10.992;2023-08-12T01:29:49;24.20;99.90
14093;DHT22;7123;49.468;10.992;2023-08-12T01:32:25;24.20;99.90
14093;DHT22;7123;49.468;10.992;2023-08-12T01:37:32;24.10;99.90
14093;DHT22;7123;49.468;10.992;2023-08-12T01:40:02;24.10;99.90
14093;DHT22;7123;49.468;10.992;2023-08-12T01:42:34;24.10;99.90
14093;DHT22;7123;49.468;10.992;2023-08-12T01:45:01;24.10;99.90
14093;DHT22;7123;49.468;10.992;2023-08-12T01:47:29;24.10;99.90
14093;DHT22;7123;49.468;10.992;2023-08-12T01:49:56;24.10;99.90
14093;DHT22;7123;49.468;10.992;2023-08-12T01:52:23;24.00;99.90
14093;DHT22;7123;49.468;10.992;2023-08-12T01:54:49;24.00;99.90
14093;DHT22;7123;49.468;10.992;2023-08-12T01:57:16;24.00;99.90
14093;DHT22;7123;49.468;10.992;2023-08-12T01:59:43;24.00;99.90
14093;DHT22;7123;49.468;10.992;2023-08-12T02:02:13;24.00;99.90
14093;DHT22;7123;49.468;10.992;2023-08-12T02:04:40;24.00;99.90
14093;DHT22;7123;49.468;10.992;2023-08-12T02:07:09;23.90;99.90
14093;DHT22;7123;49.468;10.992;2023-08-12T02:09:37;23.90;99.90
14093;DHT22;7123;49.468;10.992;2023-08-12T02:12:04;23.90;99.90
14093;DHT22;7123;49.468;10.992;2023-08-12T02:14:30;23.80;99.90
14093;DHT22;7123;49.468;10.992;2023-08-12T02:16:57;23.80;99.90
14093;DHT22;7123;49.468;10.992;2023-08-12T02:19:24;23.80;99.90
14093;DHT22;7123;49.468;10.992;2023-08-12T02:21:51;23.80;99.90
14093;DHT22;7123;49.468;10.992;2023-08-12T02:24:17;23.70;99.90
14093;DHT22;7123;49.468;10.992;2023-08-12T02:26:44;23.70;99.90
14093;DHT22;7123;49.468;10.992;2023-08-12T02:29:11;23.70;99.90
14093;DHT22;7123;49.468;10.992;2023-08-12T02:31:38;23.70;99.90
14093;DHT22;7123;49.468;10.992;2023-08-12T02:34:04;23.70;99.90
14093;DHT22;7123;49.468;10.992;2023-08-12T02:36:31;23.60;99.90
14093;DHT22;7123;49.468;10.992;2023-08-12T02:38:58;23.60;99.90
14093;DHT22;7123;49.468;10.992;2023-08-12T02:41:24;23.60;99.90
14093;DHT22;7123;49.468;10.992;2023-08-12T02:43:51;23.60;99.90
14093;DHT22;7123;49.468;10.992;2023-08-12T02:46:18;23.60;99.90
14093;DHT22;7123;49.468;10.992;2023-08-12T02:48:45;23.60;99.90
14093;DHT22;7123;49.468;10.992;2023-08-12T02:51:14;23.60;99.90
14093;DHT22;7123;49.468;10.992;2023-08-12T02:53:40;23.60;99.90
14093;DHT22;7123;49.468;10.992;2023-08-12T02:56:07;23.60;99.90
14093;DHT22;7123;49.468;10.992;2023-08-12T02:58:34;23.50;99.90
14093;DHT22;7123;49.468;10.992;2023-08-12T03:01:02;23.50;99.90
14093;DHT22;7123;49.468;10.992;2023-08-12T03:03:30;23.50;99.90
14093;DHT22;7123;49.468;10.992;2023-08-12T03:05:57;23.50;99.90
14093;DHT22;7123;49.468;10.992;2023-08-12T03:08:24;23.50;99.90
14093;DHT22;7123;49.468;10.992;2023-08-12T03:10:58;23.50;99.90
14093;DHT22;7123;49.468;10.992;2023-08-12T03:13:25;23.40;99.90
14093;DHT22;7123;49.468;10.992;2023-08-12T03:15:52;23.50;99.90
14093;DHT22;7123;49.468;10.992;2023-08-12T03:18:19;23.40;99.90
14093;DHT22;7123;49.468;10.992;2023-08-12T03:20:46;23.40;99.90
14093;DHT22;7123;49.468;10.992;2023-08-12T03:23:12;23.40;99.90
14093;DHT22;7123;49.468;10.992;2023-08-12T03:25:39;23.30;99.90
14093;DHT22;7123;49.468;10.992;2023-08-12T03:28:06;23.30;99.90
14093;DHT22;7123;49.468;10.992;2023-08-12T03:30:32;23.30;99.90
14093;DHT22;7123;49.468;10.992;2023-08-12T03:32:59;23.30;99.90
14093;DHT22;7123;49.468;10.992;2023-08-12T03:35:26;23.30;99.90
14093;DHT22;7123;49.468;10.992;2023-08-12T03:37:53;23.30;99.90
14093;DHT22;7123;49.468;10.992;2023-08-12T03:40:20;23.30;99.90
14093;DHT22;7123;49.468;10.992;2023-08-12T03:42:47;23.20;99.90
14093;DHT22;7123;49.468;10.992;2023-08-12T03:45:14;23.20;99.90
14093;DHT22;7123;49.468;10.992;2023-08-12T03:47:40;23.20;99.90
14093;DHT22;7123;49.468;10.992;2023-08-12T03:50:07;23.20;99.90
14093;DHT22;7123;49.468;10.992;2023-08-12T03:52:34;23.20;99.90
14093;DHT22;7123;49.468;10.992;2023-08-12T03:55:01;23.20;99.90
14093;DHT22;7123;49.468;10.992;2023-08-12T03:57:28;23.10;99.90
14093;DHT22;7123;49.468;10.992;2023-08-12T03:59:55;23.10;99.90
14093;DHT22;7123;49.468;10.992;2023-08-12T04:02:21;23.10;99.90
14093;DHT22;7123;49.468;10.992;2023-08-12T04:04:48;23.10;99.90
14093;DHT22;7123;49.468;10.992;2023-08-12T04:07:15;23.00;99.90
14093;DHT22;7123;49.468;10.992;2023-08-12T04:09:42;23.00;99.90
14093;DHT22;7123;49.468;10.992;2023-08-12T04:12:08;23.00;99.90
14093;DHT22;7123;49.468;10.992;2023-08-12T04:14:35;23.00;99.90
14093;DHT22;7123;49.468;10.992;2023-08-12T04:17:02;23.00;99.90
14093;DHT22;7123;49.468;10.992;2023-08-12T04:19:29;23.00;99.90
14093;DHT22;7123;49.468;10.992;2023-08-12T04:21:55;23.00;99.90
14093;DHT22;7123;49.468;10.992;2023-08-12T04:24:22;23.00;99.90
14093;DHT22;7123;49.468;10.992;2023-08-12T04:26:49;23.00;99.90
14093;DHT22;7123;49.468;10.992;2023-08-12T04:29:16;23.00;99.90
14093;DHT22;7123;49.468;10.992;2023-08-12T04:31:42;23.00;99.90
14093;DHT22;7123;49.468;10.992;2023-08-12T04:34:09;22.90;99.90
14093;DHT22;7123;49.468;10.992;2023-08-12T04:36:36;22.90;99.90
14093;DHT22;7123;49.468;10.992;2023-08-12T04:39:03;22.90;99.90
14093;DHT22;7123;49.468;10.992;2023-08-12T04:41:30;22.90;99.90
14093;DHT22;7123;49.468;10.992;2023-08-12T04:43:57;22.90;99.90
14093;DHT22;7123;49.468;10.992;2023-08-12T04:46:24;22.90;99.90
14093;DHT22;7123;49.468;10.992;2023-08-12T04:48:51;22.90;99.90
14093;DHT22;7123;49.468;10.992;2023-08-12T04:51:17;22.90;99.90
14093;DHT22;7123;49.468;10.992;2023-08-12T04:53:44;22.90;99.90
14093;DHT22;7123;49.468;10.992;2023-08-12T04:56:11;23.00;99.90
14093;DHT22;7123;49.468;10.992;2023-08-12T04:58:38;23.00;99.90
14093;DHT22;7123;49.468;10.992;2023-08-12T05:01:05;23.00;99.90
14093;DHT22;7123;49.468;10.992;2023-08-12T05:03:31;23.00;99.90
14093;DHT22;7123;49.468;10.992;2023-08-12T05:05:58;23.00;99.90
14093;DHT22;7123;49.468;10.992;2023-08-12T05:08:25;23.00;99.90
14093;DHT22;7123;49.468;10.992;2023-08-12T05:10:52;23.00;99.90
14093;DHT22;7123;49.468;10.992;2023-08-12T05:13:19;23.00;99.90
14093;DHT22;7123;49.468;10.992;2023-08-12T05:15:46;23.00;99.90
14093;DHT22;7123;49.468;10.992;2023-08-12T05:18:14;22.90;99.90
14093;DHT22;7123;49.468;10.992;2023-08-12T05:20:41;22.90;99.90
14093;DHT22;7123;49.468;10.992;2023-08-12T05:23:12;22.90;99.90
14093;DHT22;7123;49.468;10.992;2023-08-12T05:25:39;22.90;99.90
14093;DHT22;7123;49.468;10.992;2023-08-12T05:28:06;22.90;99.90
14093;DHT22;7123;49.468;10.992;2023-08-12T05:30:34;22.90;99.90
14093;DHT22;7123;49.468;10.992;2023-08-12T05:33:01;22.90;99.90
14093;DHT22;7123;49.468;10.992;2023-08-12T05:35:33;22.90;99.90
14093;DHT22;7123;49.468;10.992;2023-08-12T05:37:59;22.90;99.90
14093;DHT22;7123;49.468;10.992;2023-08-12T05:40:27;23.00;99.90
14093;DHT22;7123;49.468;10.992;2023-08-12T05:42:53;23.00;99.90
14093;DHT22;7123;49.468;10.992;2023-08-12T05:45:20;23.00;99.90
14093;DHT22;7123;49.468;10.992;2023-08-12T05:47:47;23.00;99.90
14093;DHT22;7123;49.468;10.992;2023-08-12T05:50:14;23.00;99.90
14093;DHT22;7123;49.468;10.992;2023-08-12T05:52:40;23.00;99.90
14093;DHT22;7123;49.468;10.992;2023-08-12T05:55:07;23.10;99.90
14093;DHT22;7123;49.468;10.992;2023-08-12T05:57:34;23.10;99.90
14093;DHT22;7123;49.468;10.992;2023-08-12T06:00:01;23.10;99.90
14093;DHT22;7123;49.468;10.992;2023-08-12T06:02:28;23.10;99.90
14093;DHT22;7123;49.468;10.992;2023-08-12T06:04:55;23.10;99.90
14093;DHT22;7123;49.468;10.992;2023-08-12T06:07:21;23.10;99.90
14093;DHT22;7123;49.468;10.992;2023-08-12T06:09:49;23.10;99.90
14093;DHT22;7123;49.468;10.992;2023-08-12T06:12:17;23.10;99.90
14093;DHT22;7123;49.468;10.992;2023-08-12T06:14:44;23.10;99.90
14093;DHT22;7123;49.468;10.992;2023-08-12T06:17:11;23.20;99.90
14093;DHT22;7123;49.468;10.992;2023-08-12T06:19:37;23.20;99.90
14093;DHT22;7123;49.468;10.992;2023-08-12T06:22:04;23.10;99.90
14093;DHT22;7123;49.468;10.992;2023-08-12T06:24:31;23.20;99.90
14093;DHT22;7123;49.468;10.992;2023-08-12T06:26:58;23.10;99.90
14093;DHT22;7123;49.468;10.992;2023-08-12T06:29:24;23.10;99.90
14093;DHT22;7123;49.468;10.992;2023-08-12T06:31:53;23.10;99.90
14093;DHT22;7123;49.468;10.992;2023-08-12T06:34:19;23.10;99.90
14093;DHT22;7123;49.468;10.992;2023-08-12T06:36:46;23.20;99.90
14093;DHT22;7123;49.468;10.992;2023-08-12T06:39:13;23.20;99.90
14093;DHT22;7123;49.468;10.992;2023-08-12T06:41:40;23.20;99.90
14093;DHT22;7123;49.468;10.992;2023-08-12T06:44:07;23.20;99.90
14093;DHT22;7123;49.468;10.992;2023-08-12T06:46:33;23.20;99.90
14093;DHT22;7123;49.468;10.992;2023-08-12T06:49:00;23.20;99.90
14093;DHT22;7123;49.468;10.992;2023-08-12T06:51:27;23.20;99.90
14093;DHT22;7123;49.468;10.992;2023-08-12T06:53:54;23.20;99.90
14093;DHT22;7123;49.468;10.992;2023-08-12T06:56:20;23.20;99.90
14093;DHT22;7123;49.468;10.992;2023-08-12T06:58:47;23.20;99.90
14093;DHT22;7123;49.468;10.992;2023-08-12T07:01:14;23.20;99.90
14093;DHT22;7123;49.468;10.992;2023-08-12T07:03:41;23.30;99.90
14093;DHT22;7123;49.468;10.992;2023-08-12T07:06:08;23.30;99.90
14093;DHT22;7123;49.468;10.992;2023-08-12T07:08:35;23.30;99.90
14093;DHT22;7123;49.468;10.992;2023-08-12T07:11:02;23.40;99.90
14093;DHT22;7123;49.468;10.992;2023-08-12T07:13:29;23.40;99.90
14093;DHT22;7123;49.468;10.992;2023-08-12T07:15:55;23.50;99.90
14093;DHT22;7123;49.468;10.992;2023-08-12T07:18:22;23.50;99.90
14093;DHT22;7123;49.468;10.992;2023-08-12T07:20:50;23.60;99.90
14093;DHT22;7123;49.468;10.992;2023-08-12T07:23:17;23.70;99.90
14093;DHT22;7123;49.468;10.992;2023-08-12T07:25:48;23.70;99.90
14093;DHT22;7123;49.468;10.992;2023-08-12T07:28:15;23.80;99.90
14093;DHT22;7123;49.468;10.992;2023-08-12T07:30:42;23.90;99.90
14093;DHT22;7123;49.468;10.992;2023-08-12T07:33:09;23.90;99.90
14093;DHT22;7123;49.468;10.992;2023-08-12T07:35:36;24.00;99.90
14093;DHT22;7123;49.468;10.992;2023-08-12T07:38:03;24.10;99.90
14093;DHT22;7123;49.468;10.992;2023-08-12T07:40:29;24.10;99.90
14093;DHT22;7123;49.468;10.992;2023-08-12T07:42:56;24.10;99.90
14093;DHT22;7123;49.468;10.992;2023-08-12T07:45:23;24.20;99.90
14093;DHT22;7123;49.468;10.992;2023-08-12T07:47:50;24.30;99.90
14093;DHT22;7123;49.468;10.992;2023-08-12T07:50:17;24.20;99.90
14093;DHT22;7123;49.468;10.992;2023-08-12T07:52:44;24.20;99.90
14093;DHT22;7123;49.468;10.992;2023-08-12T07:55:11;24.30;99.90
14093;DHT22;7123;49.468;10.992;2023-08-12T07:57:39;24.30;99.90
14093;DHT22;7123;49.468;10.992;2023-08-12T08:00:06;24.30;99.90
14093;DHT22;7123;49.468;10.992;2023-08-12T08:02:34;24.20;99.90
14093;DHT22;7123;49.468;10.992;2023-08-12T08:05:01;24.20;99.90
14093;DHT22;7123;49.468;10.992;2023-08-12T08:07:29;24.20;99.90
14093;DHT22;7123;49.468;10.992;2023-08-12T08:09:56;24.20;99.90
14093;DHT22;7123;49.468;10.992;2023-08-12T08:12:23;24.20;99.90
14093;DHT22;7123;49.468;10.992;2023-08-12T08:14:50;24.10;99.90
14093;DHT22;7123;49.468;10.992;2023-08-12T08:17:17;24.10;99.90
14093;DHT22;7123;49.468;10.992;2023-08-12T08:19:43;24.10;99.90
14093;DHT22;7123;49.468;10.992;2023-08-12T08:22:10;24.10;99.90
14093;DHT22;7123;49.468;10.992;2023-08-12T08:24:38;24.10;99.90
14093;DHT22;7123;49.468;10.992;2023-08-12T08:27:04;24.20;99.90
14093;DHT22;7123;49.468;10.992;2023-08-12T08:29:31;24.20;99.90
14093;DHT22;7123;49.468;10.992;2023-08-12T08:31:58;24.30;99.90
14093;DHT22;7123;49.468;10.992;2023-08-12T08:34:25;24.40;99.90
14093;DHT22;7123;49.468;10.992;2023-08-12T08:36:52;24.30;99.90
14093;DHT22;7123;49.468;10.992;2023-08-12T08:39:19;24.40;99.90
14093;DHT22;7123;49.468;10.992;2023-08-12T08:41:47;24.30;99.90
14093;DHT22;7123;49.468;10.992;2023-08-12T08:44:15;24.40;99.90
14093;DHT22;7123;49.468;10.992;2023-08-12T08:46:43;24.50;99.90
14093;DHT22;7123;49.468;10.992;2023-08-12T08:49:12;24.40;99.90
14093;DHT22;7123;49.468;10.992;2023-08-12T08:51:40;24.50;99.90
14093;DHT22;7123;49.468;10.992;2023-08-12T08:54:08;24.50;99.90
14093;DHT22;7123;49.468;10.992;2023-08-12T08:56:37;24.60;99.90
14093;DHT22;7123;49.468;10.992;2023-08-12T08:59:21;24.60;99.90
14093;DHT22;7123;49.468;10.992;2023-08-12T09:01:49;24.70;99.90
14093;DHT22;7123;49.468;10.992;2023-08-12T09:04:20;24.80;99.90
14093;DHT22;7123;49.468;10.992;2023-08-12T09:06:48;24.90;99.90
14093;DHT22;7123;49.468;10.992;2023-08-12T09:09:16;24.90;99.90
14093;DHT22;7123;49.468;10.992;2023-08-12T09:11:47;24.90;99.90
14093;DHT22;7123;49.468;10.992;2023-08-12T09:14:14;24.90;99.90
14093;DHT22;7123;49.468;10.992;2023-08-12T09:16:41;24.90;99.90
14093;DHT22;7123;49.468;10.992;2023-08-12T09:19:08;24.80;99.90
14093;DHT22;7123;49.468;10.992;2023-08-12T09:21:35;24.80;99.90
14093;DHT22;7123;49.468;10.992;2023-08-12T09:24:03;24.90;99.90
14093;DHT22;7123;49.468;10.992;2023-08-12T09:26:31;24.90;99.90
14093;DHT22;7123;49.468;10.992;2023-08-12T09:28:58;25.00;99.90
14093;DHT22;7123;49.468;10.992;2023-08-12T09:31:27;25.00;99.90
14093;DHT22;7123;49.468;10.992;2023-08-12T09:34:05;25.10;99.90
14093;DHT22;7123;49.468;10.992;2023-08-12T09:36:33;25.20;99.90
14093;DHT22;7123;49.468;10.992;2023-08-12T09:39:05;25.30;99.90
14093;DHT22;7123;49.468;10.992;2023-08-12T09:41:32;25.30;99.90
14093;DHT22;7123;49.468;10.992;2023-08-12T09:44:02;25.30;99.90
14093;DHT22;7123;49.468;10.992;2023-08-12T09:46:32;25.30;99.90
14093;DHT22;7123;49.468;10.992;2023-08-12T09:48:59;25.40;99.90
14093;DHT22;7123;49.468;10.992;2023-08-12T09:51:26;25.40;99.90
14093;DHT22;7123;49.468;10.992;2023-08-12T09:53:54;25.40;99.90
14093;DHT22;7123;49.468;10.992;2023-08-12T09:56:23;25.50;99.90
14093;DHT22;7123;49.468;10.992;2023-08-12T09:58:50;25.50;99.90
14093;DHT22;7123;49.468;10.992;2023-08-12T10:01:20;25.50;99.90
14093;DHT22;7123;49.468;10.992;2023-08-12T10:03:50;25.50;99.90
14093;DHT22;7123;49.468;10.992;2023-08-12T10:06:18;25.50;99.90
14093;DHT22;7123;49.468;10.992;2023-08-12T10:08:46;25.50;99.90
14093;DHT22;7123;49.468;10.992;2023-08-12T10:11:14;25.60;99.90
14093;DHT22;7123;49.468;10.992;2023-08-12T10:13:41;25.60;99.90
14093;DHT22;7123;49.468;10.992;2023-08-12T10:16:09;25.60;99.90
14093;DHT22;7123;49.468;10.992;2023-08-12T10:18:38;25.60;99.90
14093;DHT22;7123;49.468;10.992;2023-08-12T10:21:09;25.70;99.90
14093;DHT22;7123;49.468;10.992;2023-08-12T10:23:36;25.80;99.90
14093;DHT22;7123;49.468;10.992;2023-08-12T10:26:05;25.80;99.90
14093;DHT22;7123;49.468;10.992;2023-08-12T10:28:32;25.90;99.90
14093;DHT22;7123;49.468;10.992;2023-08-12T10:31:05;25.90;99.90
14093;DHT22;7123;49.468;10.992;2023-08-12T10:33:40;26.00;99.90
14093;DHT22;7123;49.468;10.992;2023-08-12T10:36:08;26.00;99.90
14093;DHT22;7123;49.468;10.992;2023-08-12T10:38:36;26.10;99.90
14093;DHT22;7123;49.468;10.992;2023-08-12T10:41:16;26.10;99.90
14093;DHT22;7123;49.468;10.992;2023-08-12T10:46:23;26.10;99.90
14093;DHT22;7123;49.468;10.992;2023-08-12T10:49:06;26.10;99.90
14093;DHT22;7123;49.468;10.992;2023-08-12T10:51:40;26.10;99.90
14093;DHT22;7123;49.468;10.992;2023-08-12T10:54:23;26.10;99.90
14093;DHT22;7123;49.468;10.992;2023-08-12T11:02:32;26.20;99.90
14093;DHT22;7123;49.468;10.992;2023-08-12T11:05:09;26.20;99.90
14093;DHT22;7123;49.468;10.992;2023-08-12T11:07:43;26.30;99.90
14093;DHT22;7123;49.468;10.992;2023-08-12T11:10:14;26.50;99.90
14093;DHT22;7123;49.468;10.992;2023-08-12T11:15:28;26.60;99.90
14093;DHT22;7123;49.468;10.992;2023-08-12T11:17:55;26.60;99.90
14093;DHT22;7123;49.468;10.992;2023-08-12T11:20:22;26.60;99.90
14093;DHT22;7123;49.468;10.992;2023-08-12T11:22:50;26.70;99.90
14093;DHT22;7123;49.468;10.992;2023-08-12T11:25:18;26.70;99.90
14093;DHT22;7123;49.468;10.992;2023-08-12T11:27:48;26.80;99.90
14093;DHT22;7123;49.468;10.992;2023-08-12T11:30:19;26.90;99.90
14093;DHT22;7123;49.468;10.992;2023-08-12T11:32:49;26.90;99.90
14093;DHT22;7123;49.468;10.992;2023-08-12T11:35:17;27.00;99.90
14093;DHT22;7123;49.468;10.992;2023-08-12T11:37:46;27.10;99.90
14093;DHT22;7123;49.468;10.992;2023-08-12T11:40:15;27.10;99.90
14093;DHT22;7123;49.468;10.992;2023-08-12T11:42:44;27.20;99.90
14093;DHT22;7123;49.468;10.992;2023-08-12T11:45:12;27.30;99.90
14093;DHT22;7123;49.468;10.992;2023-08-12T11:47:40;27.40;99.90
14093;DHT22;7123;49.468;10.992;2023-08-12T11:50:08;27.50;99.90
14093;DHT22;7123;49.468;10.992;2023-08-12T11:52:36;27.60;99.90
14093;DHT22;7123;49.468;10.992;2023-08-12T11:55:04;27.70;99.90
14093;DHT22;7123;49.468;10.992;2023-08-12T11:57:32;27.80;99.90
14093;DHT22;7123;49.468;10.992;2023-08-12T12:00:06;27.90;99.90
14093;DHT22;7123;49.468;10.992;2023-08-12T12:02:52;28.00;99.90
14093;DHT22;7123;49.468;10.992;2023-08-12T12:05:26;28.10;99.90
14093;DHT22;7123;49.468;10.992;2023-08-12T12:07:53;28.30;99.90
14093;DHT22;7123;49.468;10.992;2023-08-12T12:10:25;28.40;99.90
14093;DHT22;7123;49.468;10.992;2023-08-12T12:12:55;28.50;99.90
14093;DHT22;7123;49.468;10.992;2023-08-12T12:15:22;28.40;99.90
14093;DHT22;7123;49.468;10.992;2023-08-12T12:17:50;28.30;99.90
14093;DHT22;7123;49.468;10.992;2023-08-12T12:20:17;28.30;99.90
14093;DHT22;7123;49.468;10.992;2023-08-12T12:22:46;28.30;99.90
14093;DHT22;7123;49.468;10.992;2023-08-12T12:25:15;28.30;99.90
14093;DHT22;7123;49.468;10.992;2023-08-12T12:27:44;28.20;99.90
14093;DHT22;7123;49.468;10.992;2023-08-12T12:30:13;28.20;99.90
14093;DHT22;7123;49.468;10.992;2023-08-12T12:32:40;28.20;99.90
14093;DHT22;7123;49.468;10.992;2023-08-12T12:35:07;28.20;99.90
14093;DHT22;7123;49.468;10.992;2023-08-12T12:37:35;28.30;99.90
14093;DHT22;7123;49.468;10.992;2023-08-12T12:40:03;28.40;99.90
14093;DHT22;7123;49.468;10.992;2023-08-12T12:42:33;28.60;99.90
14093;DHT22;7123;49.468;10.992;2023-08-12T12:45:00;28.80;99.90
14093;DHT22;7123;49.468;10.992;2023-08-12T12:47:27;28.90;99.90
14093;DHT22;7123;49.468;10.992;2023-08-12T12:49:54;29.00;99.90
14093;DHT22;7123;49.468;10.992;2023-08-12T12:52:21;29.10;99.90
14093;DHT22;7123;49.468;10.992;2023-08-12T12:54:47;29.30;99.90
14093;DHT22;7123;49.468;10.992;2023-08-12T12:57:14;29.40;99.90
14093;DHT22;7123;49.468;10.992;2023-08-12T12:59:41;29.40;99.90
14093;DHT22;7123;49.468;10.992;2023-08-12T13:02:08;29.50;99.90
14093;DHT22;7123;49.468;10.992;2023-08-12T13:04:34;29.60;99.90
14093;DHT22;7123;49.468;10.992;2023-08-12T13:07:01;29.60;99.90
14093;DHT22;7123;49.468;10.992;2023-08-12T13:09:28;29.60;99.90
14093;DHT22;7123;49.468;10.992;2023-08-12T13:11:55;29.60;99.90
14093;DHT22;7123;49.468;10.992;2023-08-12T13:14:24;29.70;99.90
14093;DHT22;7123;49.468;10.992;2023-08-12T13:16:51;29.70;99.90
14093;DHT22;7123;49.468;10.992;2023-08-12T13:19:18;29.70;99.90
14093;DHT22;7123;49.468;10.992;2023-08-12T13:21:44;29.80;99.90
14093;DHT22;7123;49.468;10.992;2023-08-12T13:24:11;29.80;99.90
14093;DHT22;7123;49.468;10.992;2023-08-12T13:26:38;29.80;99.90
14093;DHT22;7123;49.468;10.992;2023-08-12T13:29:05;29.70;99.90
14093;DHT22;7123;49.468;10.992;2023-08-12T13:31:32;29.90;99.90
14093;DHT22;7123;49.468;10.992;2023-08-12T13:33:59;30.10;99.90
14093;DHT22;7123;49.468;10.992;2023-08-12T13:36:26;30.20;99.90
14093;DHT22;7123;49.468;10.992;2023-08-12T13:38:53;30.20;99.90
14093;DHT22;7123;49.468;10.992;2023-08-12T13:41:20;30.20;99.90
14093;DHT22;7123;49.468;10.992;2023-08-12T13:43:47;30.10;99.90
14093;DHT22;7123;49.468;10.992;2023-08-12T13:46:14;29.90;99.90
14093;DHT22;7123;49.468;10.992;2023-08-12T13:48:41;29.80;99.90
14093;DHT22;7123;49.468;10.992;2023-08-12T13:51:09;29.80;99.90
14093;DHT22;7123;49.468;10.992;2023-08-12T13:53:36;29.70;99.90
14093;DHT22;7123;49.468;10.992;2023-08-12T13:56:02;29.70;99.90
14093;DHT22;7123;49.468;10.992;2023-08-12T13:58:29;29.70;99.90
14093;DHT22;7123;49.468;10.992;2023-08-12T14:00:56;29.60;99.90
14093;DHT22;7123;49.468;10.992;2023-08-12T14:03:23;29.50;99.90
14093;DHT22;7123;49.468;10.992;2023-08-12T14:05:50;29.50;99.90
14093;DHT22;7123;49.468;10.992;2023-08-12T14:08:17;29.50;99.90
14093;DHT22;7123;49.468;10.992;2023-08-12T14:10:46;28.80;99.90
14093;DHT22;7123;49.468;10.992;2023-08-12T14:13:13;27.20;99.90
14093;DHT22;7123;49.468;10.992;2023-08-12T14:15:40;25.90;99.90
14093;DHT22;7123;49.468;10.992;2023-08-12T14:18:08;25.20;99.90
14093;DHT22;7123;49.468;10.992;2023-08-12T14:20:35;24.60;99.90
14093;DHT22;7123;49.468;10.992;2023-08-12T14:23:04;24.20;99.90
14093;DHT22;7123;49.468;10.992;2023-08-12T14:25:33;23.50;99.90
14093;DHT22;7123;49.468;10.992;2023-08-12T14:28:03;23.10;99.90
14093;DHT22;7123;49.468;10.992;2023-08-12T14:30:30;22.90;99.90
14093;DHT22;7123;49.468;10.992;2023-08-12T14:33:00;22.90;99.90
14093;DHT22;7123;49.468;10.992;2023-08-12T14:35:27;22.80;99.90
14093;DHT22;7123;49.468;10.992;2023-08-12T14:37:56;22.80;99.90
14093;DHT22;7123;49.468;10.992;2023-08-12T14:40:27;22.80;99.90
14093;DHT22;7123;49.468;10.992;2023-08-12T14:42:54;22.80;99.90
14093;DHT22;7123;49.468;10.992;2023-08-12T14:45:21;22.90;99.90
14093;DHT22;7123;49.468;10.992;2023-08-12T14:47:48;23.00;99.90
14093;DHT22;7123;49.468;10.992;2023-08-12T14:50:15;23.20;99.90
14093;DHT22;7123;49.468;10.992;2023-08-12T14:52:41;23.40;99.90
14093;DHT22;7123;49.468;10.992;2023-08-12T14:55:10;23.70;99.90
14093;DHT22;7123;49.468;10.992;2023-08-12T14:57:37;24.00;99.90
14093;DHT22;7123;49.468;10.992;2023-08-12T15:00:04;24.30;99.90
14093;DHT22;7123;49.468;10.992;2023-08-12T15:02:33;24.50;99.90
14093;DHT22;7123;49.468;10.992;2023-08-12T15:05:00;24.60;99.90
14093;DHT22;7123;49.468;10.992;2023-08-12T15:07:27;24.80;99.90
14093;DHT22;7123;49.468;10.992;2023-08-12T15:09:56;24.90;99.90
14093;DHT22;7123;49.468;10.992;2023-08-12T15:12:27;25.00;99.90
14093;DHT22;7123;49.468;10.992;2023-08-12T15:14:54;25.10;99.90
14093;DHT22;7123;49.468;10.992;2023-08-12T15:17:21;25.20;99.90
14093;DHT22;7123;49.468;10.992;2023-08-12T15:19:48;25.20;99.90
14093;DHT22;7123;49.468;10.992;2023-08-12T15:22:15;25.20;99.90
14093;DHT22;7123;49.468;10.992;2023-08-12T15:24:41;25.20;99.90
14093;DHT22;7123;49.468;10.992;2023-08-12T15:27:08;25.10;99.90
14093;DHT22;7123;49.468;10.992;2023-08-12T15:29:38;25.10;99.90
14093;DHT22;7123;49.468;10.992;2023-08-12T15:32:05;25.00;99.90
14093;DHT22;7123;49.468;10.992;2023-08-12T15:34:32;25.00;99.90
14093;DHT22;7123;49.468;10.992;2023-08-12T15:36:59;25.00;99.90
14093;DHT22;7123;49.468;10.992;2023-08-12T15:39:26;25.10;99.90
14093;DHT22;7123;49.468;10.992;2023-08-12T15:41:53;25.10;99.90
14093;DHT22;7123;49.468;10.992;2023-08-12T15:44:19;25.10;99.90
14093;DHT22;7123;49.468;10.992;2023-08-12T15:46:46;25.10;99.90